sensor_id;sensor_type;location;lat;lon;timestamp;pressure;altitude;pressure_sealevel;temperature;humidity
69971;BME280;57301;50.328;8.542;2024-02-15T00:01:52;98794.38;;;11.22;92.12
69971;BME280;57301;50.328;8.542;2024-02-15T00:04:18;98791.19;;;11.19;91.81
69971;BME280;57301;50.328;8.542;2024-02-15T00:06:46;98802.22;;;11.06;92.02
69971;BME280;57301;50.328;8.542;2024-02-15T00:09:13;98798.16;;;11.02;92.96
69971;BME280;57301;50.328;8.542;2024-02-15T00:11:40;98809.19;;;10.89;93.63
69971;BME280;57301;50.328;8.542;2024-02-15T00:14:07;98810.00;;;10.99;92.75
69971;BME280;57301;50.328;8.542;2024-02-15T00:16:34;98798.00;;;11.03;92.22
69971;BME280;57301;50.328;8.542;2024-02-15T00:19:04;98808.56;;;11.05;91.45
69971;BME280;57301;50.328;8.542;2024-02-15T00:21:30;98807.31;;;10.99;91.84
69971;BME280;57301;50.328;8.542;2024-02-15T00:23:57;98815.09;;;11.11;91.31
69971;BME280;57301;50.328;8.542;2024-02-15T00:26:26;98819.03;;;10.89;91.49
69971;BME280;57301;50.328;8.542;2024-02-15T00:28:52;98819.38;;;11.03;91.73
69971;BME280;57301;50.328;8.542;2024-02-15T00:31:19;98815.94;;;10.93;91.30
69971;BME280;57301;50.328;8.542;2024-02-15T00:33:46;98822.94;;;10.94;91.44
69971;BME280;57301;50.328;8.542;2024-02-15T00:36:13;98812.84;;;10.88;90.80
69971;BME280;57301;50.328;8.542;2024-02-15T00:38:41;98824.72;;;10.66;91.65
69971;BME280;57301;50.328;8.542;2024-02-15T00:41:09;98810.97;;;10.71;91.02
69971;BME280;57301;50.328;8.542;2024-02-15T00:43:36;98815.22;;;10.64;90.65
69971;BME280;57301;50.328;8.542;2024-02-15T00:46:03;98819.13;;;10.60;91.01
69971;BME280;57301;50.328;8.542;2024-02-15T00:48:29;98815.13;;;10.46;91.01
69971;BME280;57301;50.328;8.542;2024-02-15T00:50:56;98814.81;;;10.49;90.94
69971;BME280;57301;50.328;8.542;2024-02-15T00:53:24;98809.53;;;10.39;91.06
69971;BME280;57301;50.328;8.542;2024-02-15T00:55:51;98816.28;;;10.34;90.97
69971;BME280;57301;50.328;8.542;2024-02-15T00:58:18;98817.66;;;10.18;91.85
69971;BME280;57301;50.328;8.542;2024-02-15T01:00:44;98813.63;;;10.05;93.20
69971;BME280;57301;50.328;8.542;2024-02-15T01:03:11;98810.69;;;10.08;91.48
69971;BME280;57301;50.328;8.542;2024-02-15T01:05:38;98819.81;;;9.95;92.67
69971;BME280;57301;50.328;8.542;2024-02-15T01:08:05;98825.00;;;9.87;92.47
69971;BME280;57301;50.328;8.542;2024-02-15T01:10:31;98826.41;;;9.82;96.44
69971;BME280;57301;50.328;8.542;2024-02-15T01:13:00;98825.44;;;9.92;97.65
69971;BME280;57301;50.328;8.542;2024-02-15T01:15:26;98823.31;;;9.86;98.87
69971;BME280;57301;50.328;8.542;2024-02-15T01:17:53;98820.50;;;9.88;99.17
69971;BME280;57301;50.328;8.542;2024-02-15T01:20:19;98820.09;;;9.92;99.36
69971;BME280;57301;50.328;8.542;2024-02-15T01:22:47;98821.34;;;9.98;99.28
69971;BME280;57301;50.328;8.542;2024-02-15T01:25:14;98822.47;;;9.86;99.83
69971;BME280;57301;50.328;8.542;2024-02-15T01:27:42;98819.66;;;9.87;99.43
69971;BME280;57301;50.328;8.542;2024-02-15T01:30:08;98819.66;;;9.87;100.00
69971;BME280;57301;50.328;8.542;2024-02-15T01:32:36;98820.94;;;9.93;99.45
69971;BME280;57301;50.328;8.542;2024-02-15T01:35:03;98818.41;;;9.82;100.00
69971;BME280;57301;50.328;8.542;2024-02-15T01:37:30;98816.56;;;10.11;98.90
69971;BME280;57301;50.328;8.542;2024-02-15T01:39:56;98814.22;;;9.89;99.39
69971;BME280;57301;50.328;8.542;2024-02-15T01:42:23;98821.63;;;10.05;98.28
69971;BME280;57301;50.328;8.542;2024-02-15T01:44:50;98815.47;;;10.14;97.71
69971;BME280;57301;50.328;8.542;2024-02-15T01:47:19;98817.13;;;10.15;96.68
69971;BME280;57301;50.328;8.542;2024-02-15T01:49:46;98815.31;;;10.15;96.40
69971;BME280;57301;50.328;8.542;2024-02-15T01:52:16;98814.88;;;10.30;95.34
69971;BME280;57301;50.328;8.542;2024-02-15T01:54:44;98809.03;;;10.07;95.68
69971;BME280;57301;50.328;8.542;2024-02-15T01:57:12;98813.63;;;10.24;95.19
69971;BME280;57301;50.328;8.542;2024-02-15T01:59:39;98807.13;;;10.36;94.49
69971;BME280;57301;50.328;8.542;2024-02-15T02:02:08;98810.53;;;10.19;94.29
69971;BME280;57301;50.328;8.542;2024-02-15T02:04:38;98809.03;;;10.07;95.43
69971;BME280;57301;50.328;8.542;2024-02-15T02:07:04;98811.22;;;10.21;93.42
69971;BME280;57301;50.328;8.542;2024-02-15T02:09:31;98825.41;;;10.31;93.58
69971;BME280;57301;50.328;8.542;2024-02-15T02:11:58;98818.38;;;10.20;94.38
69971;BME280;57301;50.328;8.542;2024-02-15T02:14:24;98813.50;;;10.26;93.89
69971;BME280;57301;50.328;8.542;2024-02-15T02:16:51;98816.84;;;10.28;93.24
69971;BME280;57301;50.328;8.542;2024-02-15T02:19:18;98816.44;;;10.32;93.57
69971;BME280;57301;50.328;8.542;2024-02-15T02:21:44;98811.38;;;10.29;93.95
69971;BME280;57301;50.328;8.542;2024-02-15T02:24:13;98803.78;;;10.34;93.27
69971;BME280;57301;50.328;8.542;2024-02-15T02:26:41;98799.75;;;10.11;94.73
69971;BME280;57301;50.328;8.542;2024-02-15T02:29:07;98796.38;;;9.99;99.22
69971;BME280;57301;50.328;8.542;2024-02-15T02:31:34;98798.75;;;10.31;97.32
69971;BME280;57301;50.328;8.542;2024-02-15T02:34:01;98802.81;;;10.35;98.33
69971;BME280;57301;50.328;8.542;2024-02-15T02:36:28;98801.69;;;10.18;99.64
69971;BME280;57301;50.328;8.542;2024-02-15T02:38:56;98805.06;;;10.30;99.83
69971;BME280;57301;50.328;8.542;2024-02-15T02:41:27;98802.84;;;10.26;100.00
69971;BME280;57301;50.328;8.542;2024-02-15T02:43:56;98805.47;;;10.35;100.00
69971;BME280;57301;50.328;8.542;2024-02-15T02:46:23;98811.63;;;10.36;100.00
69971;BME280;57301;50.328;8.542;2024-02-15T02:48:50;98809.22;;;10.42;100.00
69971;BME280;57301;50.328;8.542;2024-02-15T02:51:17;98805.00;;;10.49;100.00
69971;BME280;57301;50.328;8.542;2024-02-15T02:53:43;98806.38;;;10.63;99.05
69971;BME280;57301;50.328;8.542;2024-02-15T02:56:10;98806.72;;;10.41;99.98
69971;BME280;57301;50.328;8.542;2024-02-15T02:58:36;98809.47;;;10.59;100.00
69971;BME280;57301;50.328;8.542;2024-02-15T03:01:03;98799.78;;;10.58;99.03
69971;BME280;57301;50.328;8.542;2024-02-15T03:03:30;98808.69;;;10.76;98.93
69971;BME280;57301;50.328;8.542;2024-02-15T03:05:56;98806.44;;;10.44;100.00
69971;BME280;57301;50.328;8.542;2024-02-15T03:08:23;98808.91;;;10.55;99.96
69971;BME280;57301;50.328;8.542;2024-02-15T03:10:50;98801.16;;;10.62;100.00
69971;BME280;57301;50.328;8.542;2024-02-15T03:13:17;98800.69;;;10.76;99.22
69971;BME280;57301;50.328;8.542;2024-02-15T03:15:45;98800.69;;;10.76;98.58
69971;BME280;57301;50.328;8.542;2024-02-15T03:18:15;98798.91;;;10.94;97.93
69971;BME280;57301;50.328;8.542;2024-02-15T03:20:43;98809.44;;;10.68;99.42
69971;BME280;57301;50.328;8.542;2024-02-15T03:23:09;98801.19;;;10.89;98.36
69971;BME280;57301;50.328;8.542;2024-02-15T03:25:37;98796.19;;;10.76;97.92
69971;BME280;57301;50.328;8.542;2024-02-15T03:28:04;98792.94;;;10.83;98.41
69971;BME280;57301;50.328;8.542;2024-02-15T03:30:32;98801.41;;;11.06;96.82
69971;BME280;57301;50.328;8.542;2024-02-15T03:33:00;98806.38;;;11.18;95.76
69971;BME280;57301;50.328;8.542;2024-02-15T03:35:29;98795.31;;;11.31;95.00
69971;BME280;57301;50.328;8.542;2024-02-15T03:37:58;98795.78;;;11.44;94.25
69971;BME280;57301;50.328;8.542;2024-02-15T03:40:25;98788.00;;;11.33;94.64
69971;BME280;57301;50.328;8.542;2024-02-15T03:42:56;98785.78;;;11.28;94.66
69971;BME280;57301;50.328;8.542;2024-02-15T03:45:23;98791.34;;;11.17;95.37
69971;BME280;57301;50.328;8.542;2024-02-15T03:47:52;98783.94;;;11.29;94.63
69971;BME280;57301;50.328;8.542;2024-02-15T03:50:19;98794.47;;;10.85;97.02
69971;BME280;57301;50.328;8.542;2024-02-15T03:52:48;98783.91;;;10.93;97.30
69971;BME280;57301;50.328;8.542;2024-02-15T03:55:14;98788.66;;;10.99;96.80
69971;BME280;57301;50.328;8.542;2024-02-15T03:57:41;98788.13;;;10.86;98.03
69971;BME280;57301;50.328;8.542;2024-02-15T04:00:10;98778.59;;;10.84;97.70
69971;BME280;57301;50.328;8.542;2024-02-15T04:02:38;98791.94;;;10.84;97.51
69971;BME280;57301;50.328;8.542;2024-02-15T04:05:07;98796.44;;;10.83;97.80
69971;BME280;57301;50.328;8.542;2024-02-15T04:07:35;98794.47;;;10.85;97.89
69971;BME280;57301;50.328;8.542;2024-02-15T04:10:04;98793.03;;;10.91;97.69
69971;BME280;57301;50.328;8.542;2024-02-15T04:12:30;98791.94;;;10.84;97.55
69971;BME280;57301;50.328;8.542;2024-02-15T04:14:57;98790.38;;;10.91;97.21
69971;BME280;57301;50.328;8.542;2024-02-15T04:17:31;98795.84;;;10.89;97.48
69971;BME280;57301;50.328;8.542;2024-02-15T04:20:02;98798.91;;;10.94;97.33
69971;BME280;57301;50.328;8.542;2024-02-15T04:22:30;98794.81;;;11.00;97.26
69971;BME280;57301;50.328;8.542;2024-02-15T04:25:07;98796.28;;;10.85;96.94
69971;BME280;57301;50.328;8.542;2024-02-15T04:27:37;98796.41;;;10.93;97.01
69971;BME280;57301;50.328;8.542;2024-02-15T04:30:03;98798.53;;;10.89;97.51
69971;BME280;57301;50.328;8.542;2024-02-15T04:32:31;98788.13;;;11.14;96.71
69971;BME280;57301;50.328;8.542;2024-02-15T04:35:01;98799.97;;;11.11;95.90
69971;BME280;57301;50.328;8.542;2024-02-15T04:37:28;98801.78;;;11.28;95.38
69971;BME280;57301;50.328;8.542;2024-02-15T04:40:00;98787.47;;;11.29;95.42
69971;BME280;57301;50.328;8.542;2024-02-15T04:42:36;98788.00;;;11.51;94.07
69971;BME280;57301;50.328;8.542;2024-02-15T04:45:08;98791.34;;;11.53;93.22
69971;BME280;57301;50.328;8.542;2024-02-15T04:47:36;98781.81;;;11.33;94.13
69971;BME280;57301;50.328;8.542;2024-02-15T04:50:03;98778.31;;;11.32;94.07
69971;BME280;57301;50.328;8.542;2024-02-15T04:52:32;98782.81;;;11.32;94.23
69971;BME280;57301;50.328;8.542;2024-02-15T04:54:59;98773.41;;;11.27;93.93
69971;BME280;57301;50.328;8.542;2024-02-15T04:57:26;98773.13;;;11.30;93.54
69971;BME280;57301;50.328;8.542;2024-02-15T04:59:54;98773.75;;;11.42;92.65
69971;BME280;57301;50.328;8.542;2024-02-15T05:02:22;98771.38;;;11.39;93.00
69971;BME280;57301;50.328;8.542;2024-02-15T05:04:51;98764.97;;;11.32;93.17
69971;BME280;57301;50.328;8.542;2024-02-15T05:07:22;98759.41;;;11.25;93.03
69971;BME280;57301;50.328;8.542;2024-02-15T05:09:49;98759.16;;;11.19;93.22
69971;BME280;57301;50.328;8.542;2024-02-15T05:12:23;98764.19;;;11.22;93.28
69971;BME280;57301;50.328;8.542;2024-02-15T05:14:52;98756.78;;;11.34;92.39
69971;BME280;57301;50.328;8.542;2024-02-15T05:17:20;98753.34;;;11.41;92.16
69971;BME280;57301;50.328;8.542;2024-02-15T05:19:49;98756.03;;;11.41;92.33
69971;BME280;57301;50.328;8.542;2024-02-15T05:22:16;98754.28;;;11.32;93.47
69971;BME280;57301;50.328;8.542;2024-02-15T05:24:42;98756.38;;;10.93;95.00
69971;BME280;57301;50.328;8.542;2024-02-15T05:27:09;98758.84;;;11.22;93.34
69971;BME280;57301;50.328;8.542;2024-02-15T05:29:35;98763.16;;;10.87;94.04
69971;BME280;57301;50.328;8.542;2024-02-15T05:32:02;98762.75;;;10.82;94.13
69971;BME280;57301;50.328;8.542;2024-02-15T05:34:29;98764.03;;;11.06;93.60
69971;BME280;57301;50.328;8.542;2024-02-15T05:36:56;98775.72;;;10.30;97.78
69971;BME280;57301;50.328;8.542;2024-02-15T05:39:23;98778.97;;;10.61;96.39
69971;BME280;57301;50.328;8.542;2024-02-15T05:41:49;98772.72;;;10.80;94.84
69971;BME280;57301;50.328;8.542;2024-02-15T05:44:16;98769.41;;;10.96;93.96
69971;BME280;57301;50.328;8.542;2024-02-15T05:46:46;98772.91;;;10.96;93.93
69971;BME280;57301;50.328;8.542;2024-02-15T05:49:13;98768.44;;;10.32;97.36
69971;BME280;57301;50.328;8.542;2024-02-15T05:51:44;98768.81;;;10.47;96.43
69971;BME280;57301;50.328;8.542;2024-02-15T05:54:11;98770.91;;;10.81;94.49
69971;BME280;57301;50.328;8.542;2024-02-15T05:56:38;98766.25;;;10.83;94.80
69971;BME280;57301;50.328;8.542;2024-02-15T05:59:05;98761.97;;;10.72;95.57
69971;BME280;57301;50.328;8.542;2024-02-15T06:01:37;98761.00;;;10.91;94.55
69971;BME280;57301;50.328;8.542;2024-02-15T06:04:05;98759.06;;;10.93;94.10
69971;BME280;57301;50.328;8.542;2024-02-15T06:06:34;98761.59;;;10.85;94.87
69971;BME280;57301;50.328;8.542;2024-02-15T06:09:01;98761.47;;;10.59;95.33
69971;BME280;57301;50.328;8.542;2024-02-15T06:11:29;98761.59;;;10.85;94.92
69971;BME280;57301;50.328;8.542;2024-02-15T06:13:55;98764.34;;;10.75;95.06
69971;BME280;57301;50.328;8.542;2024-02-15T06:16:22;98762.16;;;10.88;94.36
69971;BME280;57301;50.328;8.542;2024-02-15T06:18:48;98758.75;;;10.96;94.38
69971;BME280;57301;50.328;8.542;2024-02-15T06:21:15;98766.06;;;10.94;95.35
69971;BME280;57301;50.328;8.542;2024-02-15T06:23:42;98768.13;;;11.00;94.87
69971;BME280;57301;50.328;8.542;2024-02-15T06:26:09;98764.03;;;11.06;94.29
69971;BME280;57301;50.328;8.542;2024-02-15T06:28:36;98764.94;;;10.69;96.26
69971;BME280;57301;50.328;8.542;2024-02-15T06:31:20;98750.53;;;10.80;96.31
69971;BME280;57301;50.328;8.542;2024-02-15T06:34:06;98751.00;;;10.75;96.58
69971;BME280;57301;50.328;8.542;2024-02-15T06:36:55;98756.16;;;11.04;95.13
69971;BME280;57301;50.328;8.542;2024-02-15T06:39:41;98749.50;;;10.90;95.13
69971;BME280;57301;50.328;8.542;2024-02-15T06:42:10;98758.50;;;10.89;95.42
69971;BME280;57301;50.328;8.542;2024-02-15T06:44:38;98752.31;;;10.89;95.63
69971;BME280;57301;50.328;8.542;2024-02-15T06:47:07;98755.69;;;10.91;95.92
69971;BME280;57301;50.328;8.542;2024-02-15T06:49:33;98750.94;;;11.12;94.61
69971;BME280;57301;50.328;8.542;2024-02-15T06:52:00;98745.66;;;11.20;93.52
69971;BME280;57301;50.328;8.542;2024-02-15T06:54:28;98748.44;;;10.83;95.20
69971;BME280;57301;50.328;8.542;2024-02-15T06:56:55;98752.97;;;11.00;93.92
69971;BME280;57301;50.328;8.542;2024-02-15T06:59:22;98749.97;;;11.03;93.24
69971;BME280;57301;50.328;8.542;2024-02-15T07:01:49;98756.03;;;10.78;94.56
69971;BME280;57301;50.328;8.542;2024-02-15T07:04:19;98750.94;;;10.57;95.75
69971;BME280;57301;50.328;8.542;2024-02-15T07:06:47;98755.84;;;10.89;94.31
69971;BME280;57301;50.328;8.542;2024-02-15T07:09:16;98754.16;;;10.88;93.93
69971;BME280;57301;50.328;8.542;2024-02-15T07:11:44;98760.19;;;10.90;94.14
69971;BME280;57301;50.328;8.542;2024-02-15T07:14:17;98750.34;;;10.91;93.73
69971;BME280;57301;50.328;8.542;2024-02-15T07:16:45;98751.06;;;11.11;92.51
69971;BME280;57301;50.328;8.542;2024-02-15T07:19:13;98751.81;;;11.03;92.72
69971;BME280;57301;50.328;8.542;2024-02-15T07:21:40;98759.56;;;10.96;93.42
69971;BME280;57301;50.328;8.542;2024-02-15T07:24:06;98760.72;;;10.94;93.78
69971;BME280;57301;50.328;8.542;2024-02-15T07:26:34;98757.84;;;11.05;93.24
69971;BME280;57301;50.328;8.542;2024-02-15T07:29:03;98758.38;;;11.09;93.53
69971;BME280;57301;50.328;8.542;2024-02-15T07:31:39;98766.16;;;11.02;94.07
69971;BME280;57301;50.328;8.542;2024-02-15T07:34:06;98755.09;;;11.15;93.40
69971;BME280;57301;50.328;8.542;2024-02-15T07:36:36;98757.16;;;11.03;93.89
69971;BME280;57301;50.328;8.542;2024-02-15T07:39:03;98755.78;;;11.17;93.51
69971;BME280;57301;50.328;8.542;2024-02-15T07:41:30;98760.16;;;11.18;93.66
69971;BME280;57301;50.328;8.542;2024-02-15T07:44:06;98755.44;;;11.29;93.11
69971;BME280;57301;50.328;8.542;2024-02-15T07:46:35;98758.84;;;11.22;93.53
69971;BME280;57301;50.328;8.542;2024-02-15T07:49:03;98761.38;;;11.59;91.83
69971;BME280;57301;50.328;8.542;2024-02-15T07:51:30;98763.06;;;11.60;92.54
69971;BME280;57301;50.328;8.542;2024-02-15T07:53:56;98747.88;;;11.61;92.49
69971;BME280;57301;50.328;8.542;2024-02-15T07:56:26;98757.84;;;11.94;91.02
69971;BME280;57301;50.328;8.542;2024-02-15T07:58:53;98758.53;;;11.96;91.31
69971;BME280;57301;50.328;8.542;2024-02-15T08:01:23;98756.63;;;11.89;91.79
69971;BME280;57301;50.328;8.542;2024-02-15T08:03:52;98751.81;;;12.44;89.53
69971;BME280;57301;50.328;8.542;2024-02-15T08:06:25;98756.81;;;12.13;90.43
69971;BME280;57301;50.328;8.542;2024-02-15T08:08:58;98758.72;;;12.55;89.12
69971;BME280;57301;50.328;8.542;2024-02-15T08:11:28;98756.59;;;12.58;88.64
69971;BME280;57301;50.328;8.542;2024-02-15T08:14:01;98757.25;;;12.60;88.23
69971;BME280;57301;50.328;8.542;2024-02-15T08:16:27;98754.25;;;12.63;87.39
69971;BME280;57301;50.328;8.542;2024-02-15T08:19:01;98757.22;;;12.52;87.58
69971;BME280;57301;50.328;8.542;2024-02-15T08:21:36;98756.97;;;12.72;86.27
69971;BME280;57301;50.328;8.542;2024-02-15T08:24:04;98761.56;;;12.27;88.11
69971;BME280;57301;50.328;8.542;2024-02-15T08:26:33;98758.84;;;12.19;88.25
69971;BME280;57301;50.328;8.542;2024-02-15T08:29:09;98758.25;;;12.59;86.74
69971;BME280;57301;50.328;8.542;2024-02-15T08:31:36;98753.78;;;12.34;87.70
69971;BME280;57301;50.328;8.542;2024-02-15T08:34:03;98764.75;;;12.57;86.56
69971;BME280;57301;50.328;8.542;2024-02-15T08:36:36;98760.09;;;12.59;87.13
69971;BME280;57301;50.328;8.542;2024-02-15T08:39:03;98759.56;;;12.55;87.35
69971;BME280;57301;50.328;8.542;2024-02-15T08:41:32;98765.44;;;13.01;85.54
69971;BME280;57301;50.328;8.542;2024-02-15T08:43:59;98761.19;;;12.48;88.08
69971;BME280;57301;50.328;8.542;2024-02-15T08:46:27;98763.53;;;12.85;86.58
69971;BME280;57301;50.328;8.542;2024-02-15T08:48:56;98760.06;;;12.93;86.87
69971;BME280;57301;50.328;8.542;2024-02-15T08:51:23;98759.19;;;13.27;85.73
69971;BME280;57301;50.328;8.542;2024-02-15T08:53:50;98757.22;;;13.45;84.89
69971;BME280;57301;50.328;8.542;2024-02-15T08:56:18;98758.69;;;13.56;84.97
69971;BME280;57301;50.328;8.542;2024-02-15T08:58:44;98764.75;;;13.74;83.90
69971;BME280;57301;50.328;8.542;2024-02-15T09:01:11;98757.56;;;13.58;84.06
69971;BME280;57301;50.328;8.542;2024-02-15T09:03:39;98765.72;;;13.49;83.86
69971;BME280;57301;50.328;8.542;2024-02-15T09:06:10;98774.47;;;13.67;83.53
69971;BME280;57301;50.328;8.542;2024-02-15T09:08:37;98775.31;;;13.59;83.36
69971;BME280;57301;50.328;8.542;2024-02-15T09:11:11;98769.63;;;13.70;82.01
69971;BME280;57301;50.328;8.542;2024-02-15T09:13:39;98773.06;;;13.22;84.05
69971;BME280;57301;50.328;8.542;2024-02-15T09:16:06;98770.34;;;13.14;84.22
69971;BME280;57301;50.328;8.542;2024-02-15T09:18:32;98770.09;;;12.91;85.34
69971;BME280;57301;50.328;8.542;2024-02-15T09:21:13;98763.28;;;13.13;84.71
69971;BME280;57301;50.328;8.542;2024-02-15T09:24:12;98759.19;;;13.43;83.03
69971;BME280;57301;50.328;8.542;2024-02-15T09:26:42;98766.09;;;13.70;82.13
69971;BME280;57301;50.328;8.542;2024-02-15T09:29:19;98760.06;;;13.84;81.52
69971;BME280;57301;50.328;8.542;2024-02-15T09:31:47;98754.31;;;14.28;80.98
69971;BME280;57301;50.328;8.542;2024-02-15T09:34:17;98750.09;;;14.34;79.02
69971;BME280;57301;50.328;8.542;2024-02-15T09:36:46;98754.56;;;14.74;78.15
69971;BME280;57301;50.328;8.542;2024-02-15T09:39:13;98749.78;;;14.37;77.71
69971;BME280;57301;50.328;8.542;2024-02-15T09:41:40;98752.72;;;14.66;77.22
69971;BME280;57301;50.328;8.542;2024-02-15T09:44:12;98749.53;;;15.02;76.07
69971;BME280;57301;50.328;8.542;2024-02-15T09:46:45;98745.88;;;14.64;76.67
69971;BME280;57301;50.328;8.542;2024-02-15T09:49:16;98740.94;;;14.75;74.56
69971;BME280;57301;50.328;8.542;2024-02-15T09:51:45;98744.50;;;15.07;75.20
69971;BME280;57301;50.328;8.542;2024-02-15T09:54:16;98741.84;;;14.99;74.88
69971;BME280;57301;50.328;8.542;2024-02-15T09:57:01;98735.22;;;15.41;72.14
69971;BME280;57301;50.328;8.542;2024-02-15T09:59:33;98737.69;;;16.11;70.98
69971;BME280;57301;50.328;8.542;2024-02-15T10:02:02;98738.22;;;15.92;70.83
69971;BME280;57301;50.328;8.542;2024-02-15T10:04:29;98736.69;;;15.89;72.30
69971;BME280;57301;50.328;8.542;2024-02-15T10:06:56;98740.56;;;16.09;71.29
69971;BME280;57301;50.328;8.542;2024-02-15T10:09:27;98746.53;;;17.30;64.92
69971;BME280;57301;50.328;8.542;2024-02-15T10:11:59;98745.75;;;17.51;64.90
69971;BME280;57301;50.328;8.542;2024-02-15T10:14:50;98736.22;;;18.88;59.69
69971;BME280;57301;50.328;8.542;2024-02-15T10:17:40;98739.47;;;19.25;58.98
69971;BME280;57301;50.328;8.542;2024-02-15T10:20:08;98731.50;;;20.18;54.08
69971;BME280;57301;50.328;8.542;2024-02-15T10:22:38;98730.03;;;20.48;54.11
69971;BME280;57301;50.328;8.542;2024-02-15T10:25:12;98730.69;;;19.71;56.54
69971;BME280;57301;50.328;8.542;2024-02-15T10:27:41;98721.41;;;21.23;51.41
69971;BME280;57301;50.328;8.542;2024-02-15T10:30:17;98714.78;;;22.13;49.29
69971;BME280;57301;50.328;8.542;2024-02-15T10:32:45;98718.91;;;21.91;50.62
69971;BME280;57301;50.328;8.542;2024-02-15T10:35:20;98708.31;;;20.61;48.04
69971;BME280;57301;50.328;8.542;2024-02-15T10:37:48;98708.78;;;20.25;48.32
69971;BME280;57301;50.328;8.542;2024-02-15T10:40:17;98704.81;;;20.41;48.06
69971;BME280;57301;50.328;8.542;2024-02-15T10:42:51;98707.06;;;19.31;49.75
69971;BME280;57301;50.328;8.542;2024-02-15T10:45:18;98700.47;;;19.61;49.17
69971;BME280;57301;50.328;8.542;2024-02-15T10:47:46;98699.19;;;20.49;48.50
69971;BME280;57301;50.328;8.542;2024-02-15T10:50:15;98698.38;;;18.82;49.50
69971;BME280;57301;50.328;8.542;2024-02-15T10:52:58;98697.31;;;18.76;50.12
69971;BME280;57301;50.328;8.542;2024-02-15T10:58:19;98687.34;;;17.00;53.13
69971;BME280;57301;50.328;8.542;2024-02-15T11:00:55;98695.31;;;17.08;54.79
69971;BME280;57301;50.328;8.542;2024-02-15T11:03:32;98693.53;;;16.64;55.91
69971;BME280;57301;50.328;8.542;2024-02-15T11:06:02;98683.16;;;16.47;55.52
69971;BME280;57301;50.328;8.542;2024-02-15T11:08:37;98686.34;;;16.86;54.89
69971;BME280;57301;50.328;8.542;2024-02-15T11:11:10;98674.69;;;16.05;56.01
69971;BME280;57301;50.328;8.542;2024-02-15T11:16:43;98679.50;;;15.95;56.51
69971;BME280;57301;50.328;8.542;2024-02-15T11:19:10;98669.41;;;16.12;58.01
69971;BME280;57301;50.328;8.542;2024-02-15T11:22:00;98669.41;;;15.97;58.02
69971;BME280;57301;50.328;8.542;2024-02-15T11:24:33;98655.41;;;16.17;58.34
69971;BME280;57301;50.328;8.542;2024-02-15T11:27:06;98652.06;;;16.00;57.48
69971;BME280;57301;50.328;8.542;2024-02-15T11:32:47;98650.09;;;16.53;56.50
69971;BME280;57301;50.328;8.542;2024-02-15T11:42:51;98631.88;;;16.70;58.47
69971;BME280;57301;50.328;8.542;2024-02-15T11:45:20;98636.63;;;17.04;57.78
69971;BME280;57301;50.328;8.542;2024-02-15T11:47:52;98640.94;;;16.69;59.26
69971;BME280;57301;50.328;8.542;2024-02-15T11:50:20;98639.38;;;16.89;57.84
69971;BME280;57301;50.328;8.542;2024-02-15T11:52:48;98644.38;;;16.92;58.45
69971;BME280;57301;50.328;8.542;2024-02-15T11:55:19;98647.31;;;16.46;59.99
69971;BME280;57301;50.328;8.542;2024-02-15T11:57:59;98650.25;;;16.81;58.95
69971;BME280;57301;50.328;8.542;2024-02-15T12:00:32;98651.34;;;16.21;56.57
69971;BME280;57301;50.328;8.542;2024-02-15T12:03:17;98656.84;;;15.75;57.56
69971;BME280;57301;50.328;8.542;2024-02-15T12:06:03;98652.69;;;15.87;58.25
69971;BME280;57301;50.328;8.542;2024-02-15T12:08:50;98643.63;;;16.03;58.19
69971;BME280;57301;50.328;8.542;2024-02-15T12:11:36;98640.06;;;15.88;57.17
69971;BME280;57301;50.328;8.542;2024-02-15T12:14:22;98652.09;;;15.77;57.01
69971;BME280;57301;50.328;8.542;2024-02-15T12:17:11;98643.88;;;15.78;57.01
69971;BME280;57301;50.328;8.542;2024-02-15T12:20:00;98626.34;;;15.82;56.91
69971;BME280;57301;50.328;8.542;2024-02-15T12:22:32;98629.16;;;16.04;55.99
69971;BME280;57301;50.328;8.542;2024-02-15T12:25:01;98620.41;;;15.72;56.10
69971;BME280;57301;50.328;8.542;2024-02-15T12:27:29;98620.66;;;15.63;56.40
69971;BME280;57301;50.328;8.542;2024-02-15T12:29:57;98617.44;;;15.44;56.61
69971;BME280;57301;50.328;8.542;2024-02-15T12:32:26;98611.06;;;16.12;56.25
69971;BME280;57301;50.328;8.542;2024-02-15T12:34:53;98615.38;;;16.43;54.58
69971;BME280;57301;50.328;8.542;2024-02-15T12:40:33;98617.31;;;16.64;55.01
69971;BME280;57301;50.328;8.542;2024-02-15T12:43:00;98620.28;;;16.54;55.37
69971;BME280;57301;50.328;8.542;2024-02-15T12:45:27;98620.53;;;16.08;55.15
69971;BME280;57301;50.328;8.542;2024-02-15T12:47:55;98605.00;;;16.40;55.04
69971;BME280;57301;50.328;8.542;2024-02-15T12:50:29;98608.16;;;16.14;56.20
69971;BME280;57301;50.328;8.542;2024-02-15T12:53:04;98615.78;;;16.25;56.77
69971;BME280;57301;50.328;8.542;2024-02-15T12:55:34;98607.34;;;16.79;54.91
69971;BME280;57301;50.328;8.542;2024-02-15T12:58:03;98606.88;;;15.95;55.87
69971;BME280;57301;50.328;8.542;2024-02-15T13:00:31;98605.00;;;16.25;55.55
69971;BME280;57301;50.328;8.542;2024-02-15T13:03:04;98598.69;;;16.69;54.76
69971;BME280;57301;50.328;8.542;2024-02-15T13:05:31;98593.13;;;16.85;54.81
69971;BME280;57301;50.328;8.542;2024-02-15T13:07:59;98601.38;;;16.69;54.41
69971;BME280;57301;50.328;8.542;2024-02-15T13:10:27;98599.84;;;17.17;52.93
69971;BME280;57301;50.328;8.542;2024-02-15T13:12:55;98602.25;;;18.11;51.51
69971;BME280;57301;50.328;8.542;2024-02-15T13:15:22;98595.44;;;17.31;51.83
69971;BME280;57301;50.328;8.542;2024-02-15T13:17:54;98591.25;;;17.29;51.00
69971;BME280;57301;50.328;8.542;2024-02-15T13:20:23;98588.31;;;17.52;51.98
69971;BME280;57301;50.328;8.542;2024-02-15T13:23:07;98591.03;;;17.30;51.87
69971;BME280;57301;50.328;8.542;2024-02-15T13:25:42;98588.25;;;16.59;53.52
69971;BME280;57301;50.328;8.542;2024-02-15T13:28:11;98577.34;;;16.46;53.79
69971;BME280;57301;50.328;8.542;2024-02-15T13:30:39;98588.06;;;16.76;53.92
69971;BME280;57301;50.328;8.542;2024-02-15T13:33:11;98582.22;;;15.92;55.28